Ravalli County (6S5)
Hamilton, MT
Field Elevation: 3642
Lat: 45°15.05N  Long: 114°07.31W
CTAF/Unicom Freq: 122.8000
   
     For Weather-by-Phone, call 406-375-9149
Weather Advisories
4/18/2014 01:08 Z
Altimeter 29.73" Hg
Wind 260° @ 8 KT
Gusts --
Visibility 10 SM
Temperature 14° C (57° F)
Dewpoint 2° C (36° F)
Relative Humidity 44%
Density Altitude --
Condensation Altitude 9,800 feet
  Wind and Runways
Indicated Runway = 34
History
 
 
More Info
All DigiWx sites map
NOAA Forecast
 
Airport IQ 5010
(S59) Libby
(79S) Fort Benton
 
about DigiWx
 
FAA Disclaimer: The data displayed is for advisory purposes only and is not to be used for flight planning or operations. For official data, please call 406-375-9149 to hear the current automated AWOS voice message.
  METAR 6S5 180108Z AUTO 26008KT 10SM 14/02 A2973